Time;durP1;ratioP1;P1;durP2;ratioP2;P2;SDS_P1;SDS_P2;PMS_P1;PMS_P2;Temp;Humidity;BMP_temperature;BMP_pressure;BME280_temperature;BME280_humidity;BME280_pressure;Samples;Min_cycle;Max_cycle;Signal;HPM_P1;HPM_P2
2022/09/07 00:01:51;;;;;;;11.57;3.83;;;;;;;10.96;48.76;100521.66;4201416;28;20540;-66
2022/09/07 00:04:17;;;;;;;11.03;3.93;;;;;;;10.82;49.25;100512.31;4205057;28;21886;-66
2022/09/07 00:06:44;;;;;;;10.53;3.43;;;;;;;10.74;49.95;100514.84;4198187;28;20250;-68
2022/09/07 00:09:10;;;;;;;12.87;4.30;;;;;;;10.70;50.34;100505.47;4196548;28;20235;-67
2022/09/07 00:11:37;;;;;;;12.20;4.03;;;;;;;10.67;50.82;100508.41;4209335;28;21951;-67
2022/09/07 00:14:04;;;;;;;10.73;3.70;;;;;;;10.61;50.88;100511.66;4200432;28;20313;-66
2022/09/07 00:16:31;;;;;;;12.43;3.73;;;;;;;10.66;50.61;100502.25;4192231;28;21140;-66
2022/09/07 00:19:00;;;;;;;9.57;3.33;;;;;;;10.62;50.58;100508.00;4202735;28;20263;-66
2022/09/07 00:21:27;;;;;;;7.50;3.33;;;;;;;10.58;50.51;100504.78;4200354;28;20291;-65
2022/09/07 00:23:54;;;;;;;9.90;3.60;;;;;;;10.57;50.66;100503.94;4199248;28;23170;-66
2022/09/07 00:26:24;;;;;;;7.63;3.60;;;;;;;10.52;51.30;100494.72;4186624;28;20336;-66
2022/09/07 00:28:51;;;;;;;7.57;3.40;;;;;;;10.60;50.87;100502.81;4185335;28;20936;-68
2022/09/07 00:31:20;;;;;;;17.17;3.90;;;;;;;10.49;51.54;100487.88;4202852;28;22983;-67
2022/09/07 00:33:48;;;;;;;8.20;3.03;;;;;;;10.51;51.99;100485.06;4201668;28;25269;-67
2022/09/07 00:36:16;;;;;;;8.83;3.17;;;;;;;10.48;51.10;100488.84;4204595;28;20246;-64
2022/09/07 00:38:42;;;;;;;10.73;3.40;;;;;;;10.42;52.32;100494.75;4200307;28;20465;-67
2022/09/07 00:41:09;;;;;;;15.60;3.23;;;;;;;10.35;52.61;100493.66;4193018;28;22392;-69
2022/09/07 00:43:53;;;;;;;12.43;3.13;;;;;;;10.28;53.11;100492.50;4195490;28;20325;-66
2022/09/07 00:46:32;;;;;;;8.80;3.60;;;;;;;10.31;53.22;100498.41;4197269;28;20228;-66
2022/09/07 00:49:15;;;;;;;9.50;3.50;;;;;;;10.28;53.05;100488.06;4202835;28;20354;-64
2022/09/07 00:51:47;;;;;;;7.50;3.40;;;;;;;10.21;53.44;100494.03;4198604;28;20239;-66
2022/09/07 00:54:18;;;;;;;8.63;3.90;;;;;;;10.20;53.75;100495.03;4193594;28;20263;-67
2022/09/07 00:56:46;;;;;;;10.17;3.53;;;;;;;10.13;53.22;100484.94;4201300;28;20298;-65
2022/09/07 00:59:15;;;;;;;10.00;3.43;;;;;;;10.08;53.91;100491.66;4197109;28;20237;-66
2022/09/07 01:01:41;;;;;;;6.37;3.00;;;;;;;10.15;53.51;100480.31;4184521;28;20259;-66
2022/09/07 01:04:08;;;;;;;7.03;3.10;;;;;;;10.04;54.25;100479.63;4201376;28;20250;-68
2022/09/07 01:06:36;;;;;;;9.47;3.33;;;;;;;10.05;54.24;100483.97;4193559;28;20760;-66
2022/09/07 01:09:09;;;;;;;8.53;3.43;;;;;;;10.10;53.74;100485.22;4200459;28;20242;-67
2022/09/07 01:11:35;;;;;;;7.53;3.80;;;;;;;10.08;54.50;100496.97;4189833;28;20225;-67
2022/09/07 01:14:04;;;;;;;7.27;3.30;;;;;;;10.03;54.51;100491.25;4196577;28;20241;-65
2022/09/07 01:16:31;;;;;;;8.70;3.40;;;;;;;9.94;54.95;100490.25;4201559;28;22199;-65
2022/09/07 01:19:25;;;;;;;8.07;3.70;;;;;;;9.99;54.80;100482.69;4200849;28;20285;-68
2022/09/07 01:22:17;;;;;;;7.80;2.93;;;;;;;10.05;54.30;100490.13;4207219;28;21334;-68
2022/09/07 01:24:49;;;;;;;8.00;3.43;;;;;;;9.91;54.69;100483.41;4205167;28;20253;-66
2022/09/07 01:27:18;;;;;;;6.90;3.07;;;;;;;9.85;55.19;100480.47;4199244;28;20233;-66
2022/09/07 01:29:56;;;;;;;8.10;3.33;;;;;;;9.84;54.81;100484.94;4201977;28;20235;-65
2022/09/07 01:32:48;;;;;;;12.27;3.70;;;;;;;9.73;56.32;100482.41;4191923;28;20300;-68
2022/09/07 01:35:49;;;;;;;7.73;3.33;;;;;;;9.72;55.84;100478.94;4218423;28;20244;-67
2022/09/07 01:38:46;;;;;;;7.60;2.80;;;;;;;9.65;56.21;100482.28;4177445;28;22062;-66
2022/09/07 01:41:15;;;;;;;12.77;3.43;;;;;;;9.55;57.36;100479.59;4200853;28;20238;-67
2022/09/07 01:43:43;;;;;;;10.13;3.47;;;;;;;9.52;56.91;100483.34;4195998;28;20237;-65
2022/09/07 01:46:16;;;;;;;7.33;3.43;;;;;;;9.49;57.55;100483.63;4190044;28;20409;-67
2022/09/07 01:48:45;;;;;;;6.93;3.20;;;;;;;9.59;56.95;100482.81;4210004;28;20240;-67
2022/09/07 01:51:11;;;;;;;10.00;3.20;;;;;;;9.58;56.64;100479.34;4198625;28;21086;-67
2022/09/07 01:53:41;;;;;;;9.20;3.40;;;;;;;9.51;57.48;100487.00;4190563;28;20611;-69
2022/09/07 01:56:18;;;;;;;9.17;3.73;;;;;;;9.64;56.43;100484.06;4193081;28;20600;-68
2022/09/07 01:58:50;;;;;;;13.97;3.47;;;;;;;9.73;56.13;100490.38;4206229;28;20255;-67
2022/09/07 02:01:25;;;;;;;9.90;3.10;;;;;;;9.82;55.45;100489.56;4212425;28;20870;-65
2022/09/07 02:03:57;;;;;;;7.27;3.07;;;;;;;9.66;56.15;100487.44;4188274;28;21364;-65
2022/09/07 02:06:46;;;;;;;7.43;3.07;;;;;;;9.64;56.50;100488.56;4186293;28;20691;-66
2022/09/07 02:09:18;;;;;;;11.53;3.33;;;;;;;9.70;56.02;100486.19;4217613;28;20808;-67
2022/09/07 02:11:46;;;;;;;9.50;3.57;;;;;;;9.73;55.58;100483.25;4191197;28;20341;-67
2022/09/07 02:14:28;;;;;;;10.20;3.50;;;;;;;9.60;56.11;100492.47;4200010;28;20375;-69
2022/09/07 02:16:56;;;;;;;8.93;3.33;;;;;;;9.49;56.28;100485.47;4210960;28;20363;-67
2022/09/07 02:19:25;;;;;;;7.13;2.60;;;;;;;9.49;56.43;100480.16;4203492;28;21657;-65
2022/09/07 02:21:58;;;;;;;8.10;2.87;;;;;;;9.62;55.76;100475.44;4205996;28;20229;-67
2022/09/07 02:24:40;;;;;;;7.50;3.20;;;;;;;9.68;55.98;100474.84;4186110;28;20426;-66
2022/09/07 02:27:11;;;;;;;7.00;3.00;;;;;;;9.59;56.39;100473.03;4191726;28;20242;-66
2022/09/07 02:29:38;;;;;;;11.27;3.30;;;;;;;9.48;56.78;100473.13;4208561;28;20311;-67
2022/09/07 02:32:04;;;;;;;6.50;2.70;;;;;;;9.57;56.48;100472.31;4193866;28;20271;-65
2022/09/07 02:34:31;;;;;;;8.33;3.37;;;;;;;9.49;56.67;100474.84;4191667;28;20236;-67
2022/09/07 02:37:00;;;;;;;8.47;2.97;;;;;;;9.52;56.38;100467.41;4208772;28;20627;-68
2022/09/07 02:39:27;;;;;;;7.10;2.93;;;;;;;9.48;56.89;100462.50;4193038;28;26934;-67
2022/09/07 02:41:53;;;;;;;5.70;2.93;;;;;;;9.52;56.69;100469.25;4190280;28;21028;-66
2022/09/07 02:44:24;;;;;;;6.87;2.90;;;;;;;9.45;57.29;100463.63;4208840;28;20241;-66
2022/09/07 02:47:18;;;;;;;8.83;3.40;;;;;;;9.37;57.75;100457.34;4190394;28;20243;-66
2022/09/07 02:50:14;;;;;;;6.73;2.90;;;;;;;9.28;58.20;100456.34;4199903;28;20367;-66
2022/09/07 02:53:21;;;;;;;7.13;2.90;;;;;;;9.27;57.91;100452.84;4213814;28;20247;-67
2022/09/07 02:56:16;;;;;;;8.37;3.27;;;;;;;9.29;57.76;100450.91;4202957;28;20306;-68
2022/09/07 02:58:49;;;;;;;7.37;3.13;;;;;;;9.26;57.68;100451.16;4206557;28;21112;-66
2022/09/07 03:01:53;;;;;;;8.10;2.77;;;;;;;9.26;57.38;100445.84;4206906;28;20244;-66
2022/09/07 03:04:54;;;;;;;8.63;2.77;;;;;;;9.27;57.68;100455.50;4204621;28;22936;-69
2022/09/07 03:07:29;;;;;;;13.30;3.00;;;;;;;9.33;57.03;100446.13;4206941;28;20241;-66
2022/09/07 03:09:56;;;;;;;10.23;3.43;;;;;;;9.30;57.11;100444.59;4190391;28;20522;-67
2022/09/07 03:12:23;;;;;;;8.63;2.60;;;;;;;9.18;57.85;100447.53;4196783;28;20270;-67
2022/09/07 03:14:50;;;;;;;8.80;3.10;;;;;;;9.19;57.75;100444.72;4197492;28;20240;-68
2022/09/07 03:17:16;;;;;;;8.50;2.83;;;;;;;9.09;57.79;100442.03;4197127;28;22974;-66
2022/09/07 03:19:43;;;;;;;6.83;2.60;;;;;;;8.98;58.70;100439.47;4203482;28;20551;-65
2022/09/07 03:22:09;;;;;;;8.63;3.00;;;;;;;8.96;59.84;100435.28;4198810;28;20368;-68
2022/09/07 03:24:36;;;;;;;9.20;3.33;;;;;;;8.89;60.05;100440.28;4205641;28;20240;-66
2022/09/07 03:27:02;;;;;;;5.83;2.40;;;;;;;8.92;59.66;100439.16;4200127;28;20260;-66
2022/09/07 03:29:29;;;;;;;8.27;2.90;;;;;;;8.94;59.64;100442.53;4196222;28;20330;-66
2022/09/07 03:31:56;;;;;;;6.37;2.70;;;;;;;8.84;59.42;100442.50;4199785;28;20462;-67
2022/09/07 03:34:22;;;;;;;8.67;3.00;;;;;;;8.85;59.68;100442.38;4195728;28;21217;-65
2022/09/07 03:36:49;;;;;;;12.73;2.93;;;;;;;8.85;59.74;100442.38;4200701;28;20304;-66
2022/09/07 03:39:19;;;;;;;9.00;2.80;;;;;;;8.93;58.72;100443.53;4192537;28;20240;-67
2022/09/07 03:41:46;;;;;;;9.03;3.43;;;;;;;9.05;58.69;100450.41;4198262;28;20233;-65
2022/09/07 03:44:13;;;;;;;6.67;2.63;;;;;;;9.06;58.29;100446.75;4206678;28;20257;-68
2022/09/07 03:46:39;;;;;;;5.37;2.77;;;;;;;9.02;58.31;100450.69;4201493;28;21137;-68
2022/09/07 03:49:05;;;;;;;6.77;2.57;;;;;;;9.15;57.50;100456.56;4197065;28;20240;-66
2022/09/07 03:51:32;;;;;;;7.20;3.20;;;;;;;9.02;58.47;100456.81;4199001;28;21268;-65
2022/09/07 03:53:59;;;;;;;9.67;2.90;;;;;;;8.97;58.61;100451.09;4199236;28;20651;-67
2022/09/07 03:56:25;;;;;;;7.47;2.87;;;;;;;8.99;58.18;100451.78;4201697;28;20292;-65
2022/09/07 03:58:53;;;;;;;15.00;3.43;;;;;;;8.94;58.41;100447.84;4203802;28;20294;-68
2022/09/07 04:01:22;;;;;;;8.60;2.97;;;;;;;9.03;58.01;100442.56;4186441;28;21673;-66
2022/09/07 04:03:49;;;;;;;9.97;2.50;;;;;;;9.19;57.41;100446.53;4206533;28;20240;-68
2022/09/07 04:06:16;;;;;;;8.00;2.77;;;;;;;9.01;58.02;100443.69;4196689;28;20900;-66
2022/09/07 04:08:44;;;;;;;9.17;2.60;;;;;;;8.96;58.05;100446.72;4197259;28;21437;-74
2022/09/07 04:11:13;;;;;;;7.50;3.00;;;;;;;8.88;59.40;100444.75;4216529;28;20244;-73
2022/09/07 04:13:40;;;;;;;11.77;3.20;;;;;;;8.93;58.89;100446.19;4208905;28;20237;-74
2022/09/07 04:16:16;;;;;;;8.70;2.53;;;;;;;9.20;57.26;100453.50;4205736;28;22920;-74
2022/09/07 04:18:43;;;;;;;5.70;2.47;;;;;;;9.15;57.26;100450.44;4191550;28;20241;-74
2022/09/07 04:21:09;;;;;;;12.63;2.93;;;;;;;9.16;57.36;100458.25;4202350;28;20346;-71
2022/09/07 04:23:39;;;;;;;8.43;2.70;;;;;;;9.09;57.30;100452.66;4207936;28;20981;-70
2022/09/07 04:26:12;;;;;;;9.43;2.80;;;;;;;9.12;57.49;100454.19;4201003;28;21266;-71
2022/09/07 04:28:39;;;;;;;12.97;3.80;;;;;;;9.22;56.65;100463.00;4198436;28;20284;-70
2022/09/07 04:31:05;;;;;;;10.43;2.80;;;;;;;9.20;56.71;100451.72;4202918;28;20312;-75
2022/09/07 04:33:33;;;;;;;11.70;3.00;;;;;;;9.13;57.36;100453.25;4209051;28;20237;-76
2022/09/07 04:36:00;;;;;;;9.60;3.17;;;;;;;9.15;57.30;100458.38;4201436;28;21186;-70
2022/09/07 04:38:27;;;;;;;7.03;3.13;;;;;;;9.20;56.99;100458.81;4196762;28;20629;-76
2022/09/07 04:41:00;;;;;;;5.87;2.83;;;;;;;9.26;57.40;100455.63;4198893;28;20330;-70
2022/09/07 04:43:28;;;;;;;11.40;2.80;;;;;;;9.23;56.87;100454.09;4197659;28;20240;-73
2022/09/07 04:45:55;;;;;;;6.80;2.77;;;;;;;9.22;57.57;100455.06;4197879;28;20286;-73
2022/09/07 04:48:21;;;;;;;25.70;5.20;;;;;;;9.25;57.67;100449.50;4193598;28;20229;-72
2022/09/07 04:50:48;;;;;;;14.33;3.60;;;;;;;9.29;57.55;100453.56;4207012;28;20318;-72
2022/09/07 04:53:14;;;;;;;13.67;3.10;;;;;;;9.32;57.58;100451.59;4193048;28;21464;-72
2022/09/07 04:55:41;;;;;;;8.93;2.80;;;;;;;9.33;57.60;100461.25;4205097;28;23028;-71
2022/09/07 04:58:08;;;;;;;9.13;3.20;;;;;;;9.33;57.29;100461.25;4197855;28;20231;-71
2022/09/07 05:00:37;;;;;;;10.90;3.30;;;;;;;9.32;57.83;100455.09;4207149;28;20295;-71
2022/09/07 05:03:04;;;;;;;13.63;3.17;;;;;;;9.43;57.60;100459.44;4218738;28;20259;-72
2022/09/07 05:05:35;;;;;;;15.33;4.17;;;;;;;9.41;57.92;100461.38;4193009;28;20241;-67
2022/09/07 05:08:01;;;;;;;12.13;3.63;;;;;;;9.44;58.19;100467.28;4197142;28;20236;-71
2022/09/07 05:10:28;;;;;;;13.30;2.90;;;;;;;9.47;57.57;100467.00;4209053;28;20232;-71
2022/09/07 05:12:54;;;;;;;16.00;3.87;;;;;;;9.51;56.64;100471.06;4207629;28;21003;-75
2022/09/07 05:15:21;;;;;;;7.33;3.07;;;;;;;9.56;56.42;100465.34;4199143;28;21142;-71
2022/09/07 05:17:49;;;;;;;13.40;3.30;;;;;;;9.69;56.07;100465.94;4190711;28;25694;-74
2022/09/07 05:20:18;;;;;;;14.13;3.70;;;;;;;9.79;55.63;100465.09;4201957;28;20240;-71
2022/09/07 05:22:46;;;;;;;8.13;2.80;;;;;;;9.91;56.57;100469.28;4207114;28;20237;-72
2022/09/07 05:25:13;;;;;;;7.33;2.97;;;;;;;9.97;55.33;100463.38;4200665;28;21117;-71
2022/09/07 05:27:39;;;;;;;10.17;3.30;;;;;;;9.99;55.46;100472.06;4196585;28;20241;-70
2022/09/07 05:30:07;;;;;;;16.33;3.53;;;;;;;10.00;55.97;100463.13;4202315;28;22760;-70
2022/09/07 05:32:33;;;;;;;9.67;3.07;;;;;;;10.19;54.60;100464.09;4203206;28;20241;-71
2022/09/07 05:35:00;;;;;;;8.60;2.80;;;;;;;10.27;54.18;100474.84;4197205;28;20601;-67
2022/09/07 05:37:26;;;;;;;9.13;3.20;;;;;;;10.42;53.17;100468.16;4193745;28;20286;-76
2022/09/07 05:39:55;;;;;;;17.50;3.13;;;;;;;10.47;53.58;100470.38;4201830;28;20518;-72
2022/09/07 05:42:22;;;;;;;18.27;3.67;;;;;;;10.51;54.37;100480.59;4202865;28;20233;-72
2022/09/07 05:44:48;;;;;;;14.97;3.13;;;;;;;10.67;52.28;100476.47;4201038;28;20358;-74
2022/09/07 05:47:15;;;;;;;16.20;3.13;;;;;;;10.70;54.01;100476.19;4218859;28;21008;-74
2022/09/07 05:49:41;;;;;;;11.63;3.03;;;;;;;10.83;51.58;100468.72;4224777;28;20655;-76
2022/09/07 05:52:08;;;;;;;12.67;3.47;;;;;;;10.94;52.04;100471.22;4215773;28;20501;-75
2022/09/07 05:54:35;;;;;;;11.17;3.00;;;;;;;11.02;51.19;100472.28;4189321;28;20233;-73
2022/09/07 05:57:02;;;;;;;8.57;2.80;;;;;;;11.25;50.18;100478.91;4201415;28;20239;-77
2022/09/07 05:59:29;;;;;;;11.47;2.77;;;;;;;11.35;50.32;100481.50;4207713;28;22146;-75
2022/09/07 06:01:56;;;;;;;13.67;3.87;;;;;;;11.51;49.45;100478.19;4204303;28;20236;-74
2022/09/07 06:04:23;;;;;;;15.37;3.00;;;;;;;11.59;48.77;100479.13;4225338;28;20236;-73
2022/09/07 06:06:49;;;;;;;14.70;3.43;;;;;;;11.69;50.42;100479.06;4199900;28;23082;-75
2022/09/07 06:09:36;;;;;;;13.50;2.57;;;;;;;11.86;47.79;100471.22;4214762;28;21199;-77
2022/09/07 06:12:23;;;;;;;11.17;3.13;;;;;;;11.88;48.43;100477.28;4222155;28;23626;-78
2022/09/07 06:14:49;;;;;;;14.50;2.97;;;;;;;12.06;49.15;100477.25;4208233;28;23737;-77
2022/09/07 06:17:16;;;;;;;9.80;2.80;;;;;;;12.15;46.98;100473.66;4197235;28;20776;-75
2022/09/07 06:19:42;;;;;;;9.57;3.07;;;;;;;12.24;46.64;100478.06;4207431;28;20611;-75
2022/09/07 06:22:09;;;;;;;22.07;3.27;;;;;;;12.39;46.77;100471.19;4204319;28;20244;-75
2022/09/07 06:24:35;;;;;;;16.20;2.83;;;;;;;12.63;45.24;100467.84;4200614;28;21092;-74
2022/09/07 06:27:03;;;;;;;16.07;3.00;;;;;;;12.84;45.02;100463.97;4198263;28;20233;-78
2022/09/07 06:29:30;;;;;;;12.03;2.70;;;;;;;13.02;44.23;100456.72;4214417;28;20233;-74
2022/09/07 06:31:57;;;;;;;9.57;3.17;;;;;;;13.12;43.38;100458.44;4192432;28;21368;-74
2022/09/07 06:34:44;;;;;;;9.13;2.63;;;;;;;13.05;42.76;100461.72;4211030;28;20616;-78
2022/09/07 06:37:10;;;;;;;13.03;2.87;;;;;;;13.19;42.27;100456.78;4198068;28;20233;-71
2022/09/07 06:39:37;;;;;;;10.03;2.13;;;;;;;13.29;42.20;100455.66;4200655;28;20251;-42
2022/09/07 06:42:03;;;;;;;14.03;2.33;;;;;;;13.46;41.82;100464.59;4207825;28;20245;-75
2022/09/07 06:44:33;;;;;;;13.10;2.20;;;;;;;13.67;40.88;100457.94;4190544;28;21312;-78
2022/09/07 06:47:00;;;;;;;13.40;2.30;;;;;;;13.90;40.24;100450.94;4197908;28;22629;-77
2022/09/07 06:49:31;;;;;;;8.47;2.10;;;;;;;14.06;39.14;100455.47;4219609;28;20240;-77
2022/09/07 06:51:58;;;;;;;11.27;2.30;;;;;;;14.27;38.59;100460.31;4227229;28;20300;-74
2022/09/07 06:54:25;;;;;;;5.57;2.07;;;;;;;14.45;38.67;100456.63;4206940;28;20798;-77
2022/09/07 06:57:11;;;;;;;8.43;2.23;;;;;;;14.82;37.87;100461.44;4217390;28;20412;-71
2022/09/07 06:59:38;;;;;;;7.23;2.00;;;;;;;16.19;36.94;100473.41;4220240;28;20284;-76
2022/09/07 07:02:06;;;;;;;6.90;2.00;;;;;;;19.63;29.30;100483.53;4225702;28;20231;-73
2022/09/07 07:04:32;;;;;;;5.63;1.87;;;;;;;22.50;24.51;100489.03;4213839;28;20240;-73
2022/09/07 07:07:09;;;;;;;6.30;1.90;;;;;;;24.90;21.05;100505.72;4240827;28;20236;-72
2022/09/07 07:09:36;;;;;;;9.47;2.07;;;;;;;27.25;19.44;100520.03;4214146;28;20254;-73
2022/09/07 07:12:03;;;;;;;4.87;1.57;;;;;;;28.18;16.80;100536.41;4226593;28;21494;-74
2022/09/07 07:14:29;;;;;;;6.13;1.90;;;;;;;28.48;16.14;100543.25;4194706;28;20229;-68
2022/09/07 07:17:01;;;;;;;9.63;1.67;;;;;;;29.64;14.96;100554.34;4217171;28;25446;-73
2022/09/07 07:19:28;;;;;;;11.00;1.85;;;;;;;30.80;13.71;100548.50;4201945;28;20258;-74
2022/09/07 07:21:54;;;;;;;14.93;1.60;;;;;;;29.34;14.05;100547.69;4213054;28;20312;-75
2022/09/07 07:24:41;;;;;;;10.45;1.80;;;;;;;29.86;15.06;100574.22;4210874;28;20292;-71
2022/09/07 07:27:07;;;;;;;6.38;1.58;;;;;;;30.39;13.54;100575.97;4198682;28;20233;-78
2022/09/07 07:29:34;;;;;;;3.70;1.50;;;;;;;30.31;13.48;100574.59;4208799;28;20713;-77
2022/09/07 07:32:01;;;;;;;10.25;1.80;;;;;;;30.01;13.31;100581.66;4225838;28;22055;-77
2022/09/07 07:34:27;;;;;;;5.67;1.60;;;;;;;29.07;13.92;100574.34;4196790;28;20542;-79
2022/09/07 07:36:54;;;;;;;5.13;1.70;;;;;;;31.11;12.82;100583.06;4199232;28;21782;-74
2022/09/07 07:39:21;;;;;;;4.88;1.83;;;;;;;31.15;12.67;100586.09;4204059;28;20605;-75
2022/09/07 07:42:07;;;;;;;16.48;1.98;;;;;;;31.32;12.70;100583.03;4213771;28;20228;-74
2022/09/07 07:44:34;;;;;;;5.28;1.63;;;;;;;31.29;12.00;100580.84;4213762;28;20675;-76
2022/09/07 07:47:01;;;;;;;5.10;1.50;;;;;;;31.50;11.62;100579.69;4203256;28;20241;-72
2022/09/07 07:49:28;;;;;;;11.15;1.45;;;;;;;30.65;12.83;100574.06;4216793;28;21735;-44
2022/09/07 07:51:54;;;;;;;5.70;1.30;;;;;;;30.97;12.50;100564.69;4208322;28;20476;-48
2022/09/07 07:54:42;;;;;;;5.38;1.50;;;;;;;31.17;12.48;100563.84;4211305;28;20292;-71
2022/09/07 07:57:09;;;;;;;8.35;1.98;;;;;;;31.73;11.75;100578.22;4223870;28;20401;-73
2022/09/07 07:59:35;;;;;;;4.40;1.10;;;;;;;30.24;12.75;100572.09;4212930;28;20231;-75
2022/09/07 08:02:04;;;;;;;4.32;1.00;;;;;;;30.00;12.93;100563.56;4213987;28;20237;-73
2022/09/07 08:04:32;;;;;;;4.15;1.02;;;;;;;31.53;11.87;100570.88;4197856;28;20248;-70
2022/09/07 08:07:00;;;;;;;8.93;1.48;;;;;;;30.65;12.24;100552.91;4209878;28;20550;-72
2022/09/07 08:09:35;;;;;;;5.83;1.33;;;;;;;30.83;12.47;100559.75;4200726;28;20232;-70
2022/09/07 08:12:02;;;;;;;3.50;1.17;;;;;;;29.60;12.87;100550.53;4191829;28;21766;-69
2022/09/07 08:14:29;;;;;;;2.85;0.95;;;;;;;28.70;13.88;100534.94;4215616;28;20569;-70
2022/09/07 08:16:56;;;;;;;3.60;1.10;;;;;;;26.53;15.36;100518.16;4248876;28;20688;-70
2022/09/07 08:19:23;;;;;;;4.63;1.20;;;;;;;23.88;18.08;100506.75;4234815;28;22628;-70
2022/09/07 08:21:49;;;;;;;3.70;1.00;;;;;;;22.52;20.05;100495.94;4205500;28;20615;-70
2022/09/07 08:24:16;;;;;;;6.57;1.50;;;;;;;21.87;20.49;100490.75;4195100;28;20236;-67
2022/09/07 08:26:43;;;;;;;5.83;1.27;;;;;;;21.45;21.33;100501.19;4205351;28;22882;-69
2022/09/07 08:29:10;;;;;;;5.60;1.47;;;;;;;21.34;21.20;100488.28;4203981;28;20337;-69
2022/09/07 08:31:36;;;;;;;4.27;1.20;;;;;;;21.13;21.46;100486.69;4197071;28;20233;-68
2022/09/07 08:34:03;;;;;;;9.40;0.90;;;;;;;21.23;21.84;100486.22;4206628;28;20230;-69
2022/09/07 08:36:30;;;;;;;3.77;0.83;;;;;;;21.24;21.74;100479.78;4213940;28;20236;-69
2022/09/07 08:38:58;;;;;;;2.67;1.03;;;;;;;20.61;22.35;100478.50;4204551;28;20241;-69
2022/09/07 08:41:47;;;;;;;2.60;1.00;;;;;;;20.29;23.11;100474.72;4199514;28;20245;-71
2022/09/07 08:44:24;;;;;;;5.53;1.13;;;;;;;20.41;23.28;100472.22;4224128;28;20244;-69
2022/09/07 08:47:15;;;;;;;4.13;1.20;;;;;;;20.41;24.41;100466.81;4207907;28;21660;-44
2022/09/07 08:50:02;;;;;;;2.63;1.07;;;;;;;20.15;24.25;100463.06;4218248;28;20508;-67
2022/09/07 08:52:39;;;;;;;5.33;1.50;;;;;;;19.93;25.00;100456.22;4200162;28;20233;-65
2022/09/07 08:55:28;;;;;;;7.47;1.17;;;;;;;19.51;25.93;100450.06;4208688;28;20354;-69
2022/09/07 08:58:00;;;;;;;4.77;1.17;;;;;;;19.35;25.96;100446.69;4225108;28;20765;-69
2022/09/07 09:00:28;;;;;;;4.93;0.90;;;;;;;19.39;26.21;100441.72;4184140;28;20312;-66
2022/09/07 09:02:57;;;;;;;9.13;1.67;;;;;;;19.50;25.72;100451.09;4183398;28;20393;-68
2022/09/07 09:05:51;;;;;;;3.73;1.07;;;;;;;19.52;25.61;100443.63;4197755;28;21466;-66
2022/09/07 09:08:25;;;;;;;7.70;1.20;;;;;;;19.47;25.44;100438.84;4188287;28;21124;-67
2022/09/07 09:11:03;;;;;;;4.77;1.17;;;;;;;19.34;25.91;100436.94;4201180;28;24267;-68
2022/09/07 09:13:57;;;;;;;3.33;0.80;;;;;;;18.94;26.13;100419.75;4175995;28;20380;-66
2022/09/07 09:16:34;;;;;;;3.80;0.73;;;;;;;18.48;26.20;100417.59;4200654;28;20309;-71
2022/09/07 09:19:34;;;;;;;3.87;1.10;;;;;;;18.71;25.41;100422.72;4201642;28;20296;-68
2022/09/07 09:22:15;;;;;;;4.60;0.80;;;;;;;18.94;25.41;100408.97;4200464;28;20248;-68
2022/09/07 09:24:45;;;;;;;7.70;0.90;;;;;;;19.15;25.06;100413.41;4201980;28;20451;-66
2022/09/07 09:27:12;;;;;;;4.80;1.20;;;;;;;19.10;25.46;100419.41;4209521;28;20721;-67
2022/09/07 09:29:38;;;;;;;3.73;0.80;;;;;;;18.70;25.89;100411.09;4193655;28;20552;-65
2022/09/07 09:32:38;;;;;;;1.50;0.90;;;;;;;18.77;25.63;100409.28;4190378;28;20326;-67
2022/09/07 09:35:33;;;;;;;4.97;0.63;;;;;;;18.82;25.29;100408.69;4216008;28;20232;-65
2022/09/07 09:38:02;;;;;;;5.63;1.03;;;;;;;18.94;25.11;100400.88;4209212;28;21239;-69
2022/09/07 09:40:30;;;;;;;5.43;0.70;;;;;;;19.07;25.06;100400.94;4196178;28;20591;-68
2022/09/07 09:43:17;;;;;;;2.40;0.90;;;;;;;19.27;24.18;100411.81;4206028;28;20735;-67
2022/09/07 09:45:46;;;;;;;7.97;1.37;;;;;;;19.01;24.76;100400.91;4207635;28;20424;-68
2022/09/07 09:48:34;;;;;;;5.93;1.23;;;;;;;18.71;25.68;100398.47;4203179;28;21655;-67
2022/09/07 09:51:01;;;;;;;2.73;0.90;;;;;;;18.95;25.40;100397.97;4178305;28;20297;-70
2022/09/07 09:54:04;;;;;;;4.83;1.13;;;;;;;19.19;25.18;100393.91;4202923;28;21289;-67
2022/09/07 09:56:39;;;;;;;3.23;0.90;;;;;;;19.15;24.75;100386.44;4193996;28;22360;-67
2022/09/07 09:59:14;;;;;;;5.13;1.27;;;;;;;18.98;25.71;100381.38;4211996;28;20223;-69
2022/09/07 10:02:23;;;;;;;7.47;1.00;;;;;;;19.14;24.56;100388.31;4209497;28;20334;-70
2022/09/07 10:05:26;;;;;;;2.50;1.00;;;;;;;19.27;24.30;100383.97;4209243;28;20879;-68
2022/09/07 10:07:52;;;;;;;4.53;0.80;;;;;;;19.18;25.10;100386.03;4195904;28;20233;-70
2022/09/07 10:10:19;;;;;;;7.03;0.93;;;;;;;18.95;24.42;100379.09;4195272;28;20610;-67
2022/09/07 10:12:46;;;;;;;2.83;0.80;;;;;;;18.92;24.77;100376.81;4206916;28;20238;-67
2022/09/07 10:15:25;;;;;;;3.13;0.77;;;;;;;19.04;24.22;100381.63;4188703;28;20737;-68
2022/09/07 10:17:52;;;;;;;9.23;1.00;;;;;;;18.85;24.79;100370.56;4211673;28;20328;-67
2022/09/07 10:20:21;;;;;;;5.87;0.70;;;;;;;18.96;24.28;100372.69;4213286;28;20320;-66
2022/09/07 10:22:50;;;;;;;4.50;0.90;;;;;;;19.08;25.51;100381.03;4210208;28;20230;-66
2022/09/07 10:25:31;;;;;;;2.43;0.90;;;;;;;19.20;24.21;100381.28;4211207;28;20313;-69
2022/09/07 10:28:24;;;;;;;7.10;1.40;;;;;;;19.21;24.19;100379.41;4199294;28;20608;-67
2022/09/07 10:31:15;;;;;;;3.47;1.00;;;;;;;19.08;24.79;100374.78;4218736;28;20900;-67
2022/09/07 10:33:59;;;;;;;1.97;0.80;;;;;;;18.96;25.04;100366.44;4206046;28;20227;-68
2022/09/07 10:37:05;;;;;;;3.57;1.93;;;;;;;19.19;25.89;100355.31;4201616;28;20237;-67
2022/09/07 10:39:49;;;;;;;4.60;1.07;;;;;;;19.28;24.34;100354.09;4218076;28;20273;-69
2022/09/07 10:42:31;;;;;;;1.87;0.70;;;;;;;19.07;24.66;100346.16;4208882;28;20614;-68
2022/09/07 10:45:19;;;;;;;4.70;0.90;;;;;;;19.28;25.05;100359.50;4196664;28;21337;-68
2022/09/07 10:48:05;;;;;;;6.90;1.23;;;;;;;19.46;24.07;100356.22;4206817;28;20246;-66
2022/09/07 10:50:45;;;;;;;2.70;0.97;;;;;;;19.58;23.65;100349.16;4214917;28;20232;-67
2022/09/07 10:53:33;;;;;;;5.57;1.10;;;;;;;19.44;24.89;100352.06;4211319;28;20241;-67
2022/09/07 10:56:17;;;;;;;5.50;1.17;;;;;;;19.63;24.13;100353.13;4205526;28;20517;-68
2022/09/07 10:58:53;;;;;;;6.20;0.90;;;;;;;19.52;24.09;100349.16;4216821;28;20346;-68
2022/09/07 11:01:51;;;;;;;5.30;1.10;;;;;;;19.51;24.30;100342.94;4215127;28;20602;-68
2022/09/07 11:04:39;;;;;;;10.73;1.07;;;;;;;19.25;24.64;100343.72;4224886;28;20280;-67
2022/09/07 11:07:34;;;;;;;1.50;0.80;;;;;;;19.23;24.86;100340.41;4208430;28;21177;-66
2022/09/07 11:10:18;;;;;;;5.97;1.37;;;;;;;19.38;24.06;100351.81;4197323;28;20286;-67
2022/09/07 11:12:45;;;;;;;7.47;1.70;;;;;;;19.63;23.96;100351.25;4201148;28;22294;-69
2022/09/07 11:15:12;;;;;;;5.17;1.07;;;;;;;19.80;23.04;100349.81;4200457;28;20231;-68
2022/09/07 11:18:01;;;;;;;3.13;0.63;;;;;;;19.87;23.27;100349.00;4204168;28;20611;-69
2022/09/07 11:20:54;;;;;;;4.50;1.00;;;;;;;19.87;22.93;100351.69;4224068;28;20243;-68
2022/09/07 11:23:43;;;;;;;6.47;1.30;;;;;;;19.99;22.82;100344.63;4215176;28;20282;-67
2022/09/07 11:26:16;;;;;;;3.17;1.00;;;;;;;20.11;22.44;100342.13;4223313;28;20678;-66
2022/09/07 11:28:51;;;;;;;7.93;1.10;;;;;;;20.11;23.43;100337.56;4206919;28;22509;-67
2022/09/07 11:31:42;;;;;;;7.70;1.00;;;;;;;20.00;23.37;100343.59;4214213;28;20228;-68
2022/09/07 11:34:22;;;;;;;8.37;1.00;;;;;;;20.05;23.20;100327.59;4208029;28;20682;-75
2022/09/07 11:36:56;;;;;;;4.73;1.57;;;;;;;20.24;23.89;100328.59;4210244;28;26343;-65
2022/09/07 11:39:27;;;;;;;8.00;1.40;;;;;;;20.42;22.47;100328.75;4206842;28;20244;-64
2022/09/07 11:42:01;;;;;;;6.03;1.20;;;;;;;20.24;22.78;100315.09;4231065;28;20226;-68
2022/09/07 11:44:55;;;;;;;3.20;1.33;;;;;;;19.91;23.23;100310.56;4221112;28;20230;-66
2022/09/07 11:47:43;;;;;;;3.40;1.20;;;;;;;19.75;23.04;100309.13;4203632;28;22384;-70
2022/09/07 11:50:15;;;;;;;4.03;0.90;;;;;;;19.85;22.86;100316.78;4226576;28;20334;-68
2022/09/07 11:52:46;;;;;;;5.80;1.50;;;;;;;20.02;22.79;100317.22;4232939;28;20238;-73
2022/09/07 11:55:24;;;;;;;6.17;1.10;;;;;;;20.31;23.36;100315.91;4201347;28;20314;-69